createdAt,value
2019-05-31T00:01:21.884Z,18.10
2019-05-31T00:03:48.755Z,18.10
2019-05-31T00:06:15.623Z,18.10
2019-05-31T00:08:42.600Z,18.10
2019-05-31T00:11:09.567Z,18.10
2019-05-31T00:13:36.538Z,18.00
2019-05-31T00:16:03.541Z,18.00
2019-05-31T00:18:30.392Z,18.00
2019-05-31T00:20:57.352Z,18.00
2019-05-31T00:23:24.623Z,18.00
2019-05-31T00:25:51.488Z,18.00
2019-05-31T00:28:18.366Z,18.00
2019-05-31T00:30:45.224Z,18.00
2019-05-31T00:33:12.093Z,18.00
2019-05-31T00:35:38.956Z,18.00
2019-05-31T00:38:06.078Z,18.00
2019-05-31T00:40:33.184Z,18.00
2019-05-31T00:43:01.442Z,18.00
2019-05-31T00:45:28.599Z,18.00
2019-05-31T00:47:55.476Z,18.10
2019-05-31T00:50:22.652Z,18.00
2019-05-31T00:52:49.505Z,18.00
2019-05-31T00:55:16.568Z,18.00
2019-05-31T00:57:43.544Z,18.00
2019-05-31T01:00:11.028Z,18.00
2019-05-31T01:02:40.897Z,18.00
2019-05-31T01:05:07.443Z,18.00
2019-05-31T01:07:34.492Z,18.00
2019-05-31T01:10:01.783Z,18.00
2019-05-31T01:12:28.735Z,18.00
2019-05-31T01:14:55.812Z,18.00
2019-05-31T01:17:22.680Z,17.90
2019-05-31T01:19:49.558Z,17.90
2019-05-31T01:22:16.432Z,17.90
2019-05-31T01:24:43.383Z,17.90
2019-05-31T01:27:10.264Z,17.90
2019-05-31T01:29:37.131Z,17.90
2019-05-31T01:32:04.235Z,17.90
2019-05-31T01:34:31.124Z,17.90
2019-05-31T01:36:58.004Z,17.80
2019-05-31T01:39:24.868Z,17.80
2019-05-31T01:41:51.739Z,17.80
2019-05-31T01:44:18.703Z,17.70
2019-05-31T01:46:45.576Z,17.60
2019-05-31T01:49:12.453Z,17.60
2019-05-31T01:51:39.320Z,17.60
2019-05-31T01:54:06.381Z,17.50
2019-05-31T01:56:33.248Z,17.40
2019-05-31T01:59:00.481Z,17.30
2019-05-31T02:01:27.353Z,17.30
2019-05-31T02:03:54.323Z,17.30
2019-05-31T02:06:21.267Z,17.20
2019-05-31T02:08:48.129Z,17.20
2019-05-31T02:11:15.000Z,17.10
2019-05-31T02:13:41.899Z,17.10
2019-05-31T02:16:08.887Z,17.10
2019-05-31T02:18:35.760Z,17.00
2019-05-31T02:21:02.755Z,17.00
2019-05-31T02:23:29.687Z,17.00
2019-05-31T02:25:56.564Z,16.90
2019-05-31T02:28:23.836Z,16.90
2019-05-31T02:30:50.690Z,16.90
2019-05-31T02:33:18.004Z,16.90
2019-05-31T02:35:45.387Z,16.90
2019-05-31T02:38:14.178Z,16.90
2019-05-31T02:40:41.243Z,16.90
2019-05-31T02:43:09.466Z,16.80
2019-05-31T02:45:47.245Z,16.80
2019-05-31T02:48:05.513Z,16.80
2019-05-31T02:50:34.632Z,16.80
2019-05-31T02:53:01.583Z,16.80
2019-05-31T02:55:28.871Z,16.80
2019-05-31T02:57:57.511Z,16.80
2019-05-31T03:00:24.681Z,16.80
2019-05-31T03:02:52.470Z,16.80
2019-05-31T03:05:21.304Z,16.80
2019-05-31T03:07:48.517Z,16.70
2019-05-31T03:10:17.932Z,16.70
2019-05-31T03:12:46.776Z,16.70
2019-05-31T03:15:16.279Z,16.70
2019-05-31T03:17:43.587Z,16.60
2019-05-31T03:20:11.624Z,16.60
2019-05-31T03:22:39.020Z,16.60
2019-05-31T03:25:06.922Z,16.60
2019-05-31T03:27:33.884Z,16.60
2019-05-31T03:30:00.759Z,16.50
2019-05-31T03:32:37.933Z,16.50
2019-05-31T03:34:56.696Z,16.50
2019-05-31T03:37:23.559Z,16.50
2019-05-31T03:39:50.452Z,16.40
2019-05-31T03:42:18.641Z,16.40
2019-05-31T03:44:45.691Z,16.40
2019-05-31T03:47:14.401Z,16.40
2019-05-31T03:49:41.870Z,16.40
2019-05-31T03:52:08.728Z,16.30
2019-05-31T03:54:35.610Z,16.40
2019-05-31T03:57:02.668Z,16.40
2019-05-31T03:59:29.542Z,16.30
2019-05-31T04:01:56.422Z,16.30
2019-05-31T04:04:24.018Z,16.20
2019-05-31T04:06:51.681Z,16.20
2019-05-31T04:09:19.146Z,16.20
2019-05-31T04:11:46.533Z,16.20
2019-05-31T04:14:13.404Z,16.10
2019-05-31T04:16:49.397Z,16.10
2019-05-31T04:19:09.076Z,16.10
2019-05-31T04:21:35.928Z,16.10
2019-05-31T04:24:02.993Z,16.10
2019-05-31T04:26:29.965Z,16.10
2019-05-31T04:28:56.837Z,16.10
2019-05-31T04:31:24.328Z,16.10
2019-05-31T04:33:51.889Z,16.10
2019-05-31T04:36:20.012Z,16.10
2019-05-31T04:38:47.129Z,16.10
2019-05-31T04:41:14.104Z,16.10
2019-05-31T04:43:43.324Z,16.00
2019-05-31T04:46:10.220Z,16.00
2019-05-31T04:48:37.102Z,16.00
2019-05-31T04:51:03.978Z,16.00
2019-05-31T04:53:31.135Z,16.10
2019-05-31T04:55:58.005Z,16.10
2019-05-31T04:58:29.319Z,16.20
2019-05-31T05:00:54.061Z,16.20
2019-05-31T05:03:23.278Z,16.30
2019-05-31T05:05:49.720Z,16.40
2019-05-31T05:08:18.455Z,16.40
2019-05-31T05:10:45.479Z,16.50
2019-05-31T05:13:12.352Z,16.60
2019-05-31T05:15:39.677Z,16.70
2019-05-31T05:18:06.571Z,16.80
2019-05-31T05:20:33.447Z,16.90
2019-05-31T05:23:00.323Z,17.00
2019-05-31T05:25:27.310Z,17.10
2019-05-31T05:27:54.188Z,17.20
2019-05-31T05:30:21.689Z,17.20
2019-05-31T05:32:49.005Z,17.30
2019-05-31T05:35:16.079Z,17.40
2019-05-31T05:37:43.204Z,17.50
2019-05-31T05:40:10.317Z,17.60
2019-05-31T05:42:37.195Z,17.70
2019-05-31T05:45:04.685Z,17.80
2019-05-31T05:47:46.471Z,17.90
2019-05-31T05:50:00.628Z,17.90
2019-05-31T05:52:28.123Z,17.90
2019-05-31T05:54:55.102Z,18.00
2019-05-31T05:57:22.691Z,18.10
2019-05-31T05:59:49.670Z,18.20
2019-05-31T06:02:16.628Z,18.20
2019-05-31T06:04:43.496Z,18.30
2019-05-31T06:07:10.370Z,18.40
2019-05-31T06:09:37.254Z,18.40
2019-05-31T06:12:04.390Z,18.40
2019-05-31T06:14:32.358Z,18.50
2019-05-31T06:17:04.025Z,18.60
2019-05-31T06:19:28.710Z,18.70
2019-05-31T06:21:55.713Z,18.80
2019-05-31T06:24:22.605Z,18.80
2019-05-31T06:26:49.467Z,18.90
2019-05-31T06:29:16.447Z,19.00
2019-05-31T06:31:43.658Z,19.00
2019-05-31T06:34:10.520Z,19.10
2019-05-31T06:36:37.503Z,19.10
2019-05-31T06:39:06.631Z,19.20
2019-05-31T06:41:33.513Z,19.20
2019-05-31T06:44:00.482Z,19.30
2019-05-31T06:46:27.811Z,19.40
2019-05-31T06:48:54.985Z,19.40
2019-05-31T06:51:22.117Z,19.50
2019-05-31T06:53:48.998Z,19.70
2019-05-31T06:56:15.853Z,19.80
2019-05-31T06:58:42.832Z,19.80
2019-05-31T07:01:09.928Z,19.80
2019-05-31T07:03:37.126Z,19.90
2019-05-31T07:06:04.419Z,20.00
2019-05-31T07:08:31.278Z,20.10
2019-05-31T07:10:58.476Z,20.10
2019-05-31T07:13:25.456Z,20.30
2019-05-31T07:15:52.712Z,20.40
2019-05-31T07:18:34.606Z,20.50
2019-05-31T07:20:48.475Z,20.60
2019-05-31T07:23:30.785Z,20.60
2019-05-31T07:25:44.220Z,20.70
2019-05-31T07:28:11.205Z,20.80
2019-05-31T07:30:40.251Z,20.80
2019-05-31T07:33:07.873Z,20.80
2019-05-31T07:35:36.024Z,20.90
2019-05-31T07:38:03.225Z,20.90
2019-05-31T07:40:30.588Z,21.00
2019-05-31T07:42:57.684Z,21.10
2019-05-31T07:45:24.765Z,21.10
2019-05-31T07:47:51.664Z,21.10
2019-05-31T07:50:18.735Z,21.10
2019-05-31T07:52:45.967Z,21.10
2019-05-31T07:55:13.185Z,21.30
2019-05-31T07:57:40.121Z,21.30
2019-05-31T08:00:08.893Z,21.50
2019-05-31T08:02:35.984Z,21.50
2019-05-31T08:05:03.699Z,21.60
2019-05-31T08:07:31.138Z,21.70
2019-05-31T08:09:58.252Z,21.70
2019-05-31T08:12:25.344Z,21.80
2019-05-31T08:14:52.417Z,21.90
2019-05-31T08:17:19.905Z,21.70
2019-05-31T08:19:47.160Z,21.80
2019-05-31T08:22:14.116Z,21.90
2019-05-31T08:24:41.151Z,22.00
2019-05-31T08:27:08.040Z,22.10
2019-05-31T08:29:36.223Z,22.20
2019-05-31T08:32:03.509Z,22.40
2019-05-31T08:34:30.568Z,22.60
2019-05-31T08:37:03.414Z,22.80
2019-05-31T08:39:27.119Z,22.90
2019-05-31T08:41:54.474Z,23.10
2019-05-31T08:44:21.449Z,23.20
2019-05-31T08:46:48.315Z,23.30
2019-05-31T08:49:30.760Z,23.50
2019-05-31T08:51:46.548Z,23.60
2019-05-31T08:54:12.865Z,23.80
2019-05-31T08:56:39.744Z,24.00
2019-05-31T08:59:06.867Z,24.60
2019-05-31T09:01:34.096Z,25.50
2019-05-31T09:04:01.023Z,27.00
2019-05-31T09:06:29.109Z,29.30
2019-05-31T09:08:56.708Z,31.50
2019-05-31T09:11:23.600Z,33.60
2019-05-31T09:13:50.458Z,35.50
2019-05-31T09:16:17.313Z,37.30
2019-05-31T09:18:44.279Z,38.30
2019-05-31T09:21:11.339Z,38.80
2019-05-31T09:23:39.108Z,37.90
2019-05-31T09:26:06.189Z,36.60
2019-05-31T09:28:34.113Z,35.00
2019-05-31T09:31:01.215Z,33.40
2019-05-31T09:33:28.285Z,31.80
2019-05-31T09:35:55.348Z,30.60
2019-05-31T09:38:22.684Z,29.10
2019-05-31T09:40:49.550Z,28.00
2019-05-31T09:43:20.029Z,27.20
2019-05-31T09:45:45.563Z,26.70
2019-05-31T09:48:12.548Z,26.30
2019-05-31T09:50:39.711Z,26.00
2019-05-31T09:53:06.579Z,25.90
2019-05-31T09:55:34.224Z,25.70
2019-05-31T09:58:01.502Z,25.40
2019-05-31T10:00:28.887Z,25.30
2019-05-31T10:02:55.860Z,25.10
2019-05-31T10:05:22.936Z,24.90
2019-05-31T10:07:50.108Z,24.60
2019-05-31T10:10:17.448Z,24.60
2019-05-31T10:12:44.516Z,24.60
2019-05-31T10:15:11.916Z,24.60
2019-05-31T10:17:40.337Z,24.60
2019-05-31T10:20:08.756Z,24.50
2019-05-31T10:22:37.453Z,24.50
2019-05-31T10:25:05.431Z,24.50
2019-05-31T10:27:32.778Z,24.70
2019-05-31T10:30:00.912Z,24.80
2019-05-31T10:32:27.896Z,24.90
2019-05-31T10:34:54.764Z,24.90
2019-05-31T10:37:21.961Z,25.00
2019-05-31T10:39:48.824Z,25.00
2019-05-31T10:42:19.715Z,25.20
2019-05-31T10:44:44.487Z,25.20
2019-05-31T10:47:11.756Z,25.20
2019-05-31T10:49:40.120Z,25.30
2019-05-31T10:52:07.256Z,25.30
2019-05-31T10:54:36.270Z,25.40
2019-05-31T10:57:03.547Z,25.40
2019-05-31T10:59:30.535Z,25.30
2019-05-31T11:01:57.861Z,25.00
2019-05-31T11:04:24.846Z,25.00
2019-05-31T11:06:52.224Z,25.10
2019-05-31T11:09:19.296Z,25.20
2019-05-31T11:11:46.706Z,25.10
2019-05-31T11:14:14.088Z,25.10
2019-05-31T11:16:41.671Z,25.10
2019-05-31T11:19:08.860Z,25.00
2019-05-31T11:21:35.812Z,25.00
2019-05-31T11:24:02.889Z,25.10
2019-05-31T11:26:30.185Z,25.00
2019-05-31T11:28:57.058Z,25.10
2019-05-31T11:31:24.039Z,25.10
2019-05-31T11:33:51.708Z,25.20
2019-05-31T11:36:18.876Z,25.50
2019-05-31T11:38:46.806Z,25.80
2019-05-31T11:41:14.136Z,26.10
2019-05-31T11:43:41.025Z,26.30
2019-05-31T11:46:07.873Z,26.50
2019-05-31T11:48:34.857Z,26.70
2019-05-31T11:51:01.831Z,26.60
2019-05-31T11:53:28.710Z,26.70
2019-05-31T11:55:55.557Z,26.80
2019-05-31T11:58:22.656Z,27.00
2019-05-31T12:00:49.516Z,27.00
2019-05-31T12:03:16.473Z,27.00
2019-05-31T12:05:43.839Z,27.20
2019-05-31T12:08:10.910Z,27.30
2019-05-31T12:10:38.145Z,27.50
2019-05-31T12:13:05.349Z,27.60
2019-05-31T12:15:32.406Z,27.50
2019-05-31T12:17:59.627Z,27.20
2019-05-31T12:20:26.697Z,27.30
2019-05-31T12:22:53.556Z,27.10
2019-05-31T12:25:20.500Z,26.90
2019-05-31T12:27:48.891Z,27.00
2019-05-31T12:30:22.332Z,27.10
2019-05-31T12:32:47.020Z,27.10
2019-05-31T12:35:14.680Z,27.00
2019-05-31T12:37:42.553Z,27.00
2019-05-31T12:40:11.173Z,26.90
2019-05-31T12:42:38.192Z,26.90
2019-05-31T12:45:05.329Z,27.00
2019-05-31T12:47:32.209Z,26.80
2019-05-31T12:49:59.168Z,26.80
2019-05-31T12:52:26.138Z,26.80
2019-05-31T12:54:53.009Z,26.80
2019-05-31T12:57:19.875Z,26.90
2019-05-31T12:59:47.092Z,26.80
2019-05-31T13:02:14.109Z,26.80
2019-05-31T13:04:41.609Z,26.90
2019-05-31T13:07:08.838Z,26.80
2019-05-31T13:09:35.716Z,26.90
2019-05-31T13:12:02.678Z,26.90
2019-05-31T13:14:29.708Z,26.90
2019-05-31T13:16:56.688Z,27.00
2019-05-31T13:19:23.592Z,27.20
2019-05-31T13:21:52.644Z,28.10
2019-05-31T13:24:19.254Z,28.70
2019-05-31T13:26:47.404Z,28.90
2019-05-31T13:29:14.879Z,29.00
2019-05-31T13:31:41.840Z,29.50
2019-05-31T13:34:08.713Z,30.40
2019-05-31T13:36:39.400Z,30.70
2019-05-31T13:39:06.248Z,30.80
2019-05-31T13:41:33.117Z,31.20
2019-05-31T13:43:59.976Z,31.90
2019-05-31T13:46:26.840Z,33.30
2019-05-31T13:48:54.070Z,35.10
2019-05-31T13:51:21.102Z,36.40
2019-05-31T13:53:48.405Z,38.30
2019-05-31T13:56:15.544Z,40.40
2019-05-31T13:58:42.887Z,40.60
2019-05-31T14:01:09.813Z,39.10
2019-05-31T14:03:36.688Z,38.70
2019-05-31T14:06:03.661Z,38.40
2019-05-31T14:08:30.846Z,37.90
2019-05-31T14:10:58.067Z,37.70
2019-05-31T14:13:25.080Z,37.90
2019-05-31T14:15:53.047Z,37.80
2019-05-31T14:18:20.141Z,38.60
2019-05-31T14:20:48.468Z,39.90
2019-05-31T14:23:15.780Z,40.10
2019-05-31T14:25:43.000Z,39.60
2019-05-31T14:28:09.869Z,38.30
2019-05-31T14:30:36.727Z,37.00
2019-05-31T14:33:04.007Z,35.60
2019-05-31T14:35:31.316Z,34.30
2019-05-31T14:37:58.649Z,34.50
2019-05-31T14:40:25.748Z,35.90
2019-05-31T14:42:52.642Z,37.10
2019-05-31T14:45:19.716Z,36.60
2019-05-31T14:47:46.800Z,35.30
2019-05-31T14:50:15.377Z,33.90
2019-05-31T14:52:42.253Z,32.90
2019-05-31T14:55:09.621Z,32.10
2019-05-31T14:57:37.039Z,31.30
2019-05-31T15:00:06.217Z,30.60
2019-05-31T15:02:33.278Z,29.80
2019-05-31T15:05:05.141Z,29.10
2019-05-31T15:07:29.855Z,28.50
2019-05-31T15:09:58.297Z,28.10
2019-05-31T15:12:26.679Z,27.80
2019-05-31T15:14:53.958Z,27.50
2019-05-31T15:17:20.932Z,27.30
2019-05-31T15:19:48.127Z,27.00
2019-05-31T15:22:15.091Z,26.80
2019-05-31T15:24:41.966Z,26.60
2019-05-31T15:27:08.840Z,26.40
2019-05-31T15:29:35.840Z,26.30
2019-05-31T15:32:48.901Z,26.10
2019-05-31T15:35:46.561Z,26.00
2019-05-31T15:38:13.965Z,25.70
2019-05-31T15:40:44.427Z,25.70
2019-05-31T15:43:11.684Z,25.70
2019-05-31T15:45:38.677Z,25.60
2019-05-31T15:48:05.648Z,25.60
2019-05-31T15:50:35.291Z,25.60
2019-05-31T15:53:09.260Z,25.60
2019-05-31T15:55:31.265Z,25.60
2019-05-31T15:57:59.511Z,25.60
2019-05-31T16:00:37.378Z,25.70
2019-05-31T16:03:06.119Z,25.70
2019-05-31T16:05:33.728Z,25.80
2019-05-31T16:08:00.585Z,25.90
2019-05-31T16:10:27.580Z,26.00
2019-05-31T16:12:54.561Z,26.00
2019-05-31T16:15:21.507Z,26.00
2019-05-31T16:17:48.385Z,26.10
2019-05-31T16:20:15.463Z,26.10
2019-05-31T16:22:42.315Z,26.10
2019-05-31T16:25:09.485Z,26.00
2019-05-31T16:27:36.463Z,26.00
2019-05-31T16:30:04.443Z,25.90
2019-05-31T16:32:31.441Z,25.80
2019-05-31T16:34:58.311Z,25.80
2019-05-31T16:37:25.191Z,25.70
2019-05-31T16:39:52.497Z,25.60
2019-05-31T16:42:19.360Z,25.60
2019-05-31T16:44:46.229Z,25.50
2019-05-31T16:47:13.212Z,25.50
2019-05-31T16:49:54.472Z,25.50
2019-05-31T16:52:08.879Z,25.60
2019-05-31T16:54:35.924Z,25.60
2019-05-31T16:57:03.032Z,25.70
2019-05-31T16:59:29.896Z,25.60
2019-05-31T17:01:56.764Z,25.60
2019-05-31T17:04:24.709Z,25.60
2019-05-31T17:06:51.900Z,25.40
2019-05-31T17:09:18.780Z,25.30
2019-05-31T17:11:45.735Z,25.20
2019-05-31T17:14:12.923Z,25.00
2019-05-31T17:16:39.810Z,24.90
2019-05-31T17:19:08.154Z,24.90
2019-05-31T17:21:35.206Z,24.80
2019-05-31T17:24:05.502Z,24.70
2019-05-31T17:26:30.968Z,24.60
2019-05-31T17:28:57.947Z,24.60
2019-05-31T17:31:24.836Z,24.50
2019-05-31T17:33:51.757Z,24.50
2019-05-31T17:36:18.904Z,24.40
2019-05-31T17:38:46.156Z,24.40
2019-05-31T17:41:13.876Z,24.40
2019-05-31T17:43:41.011Z,24.40
2019-05-31T17:46:08.033Z,24.40
2019-05-31T17:48:35.171Z,24.40
2019-05-31T17:51:02.419Z,24.40
2019-05-31T17:53:29.299Z,24.30
2019-05-31T17:55:56.280Z,24.30
2019-05-31T17:58:23.435Z,24.30
2019-05-31T18:00:50.393Z,24.20
2019-05-31T18:03:17.503Z,24.20
2019-05-31T18:05:44.710Z,24.10
2019-05-31T18:08:11.892Z,24.10
2019-05-31T18:10:40.206Z,24.00
2019-05-31T18:13:08.342Z,24.00
2019-05-31T18:15:36.145Z,23.90
2019-05-31T18:18:03.332Z,23.90
2019-05-31T18:20:30.340Z,23.80
2019-05-31T18:22:57.304Z,23.80
2019-05-31T18:25:26.972Z,23.70
2019-05-31T18:27:53.386Z,23.70
2019-05-31T18:32:10.769Z,23.60
2019-05-31T18:32:49.935Z,23.60
2019-05-31T18:35:17.038Z,23.50
2019-05-31T18:37:43.909Z,23.50
2019-05-31T18:40:11.836Z,23.40
2019-05-31T18:42:39.036Z,23.30
2019-05-31T18:45:06.600Z,23.20
2019-05-31T18:47:33.581Z,23.10
2019-05-31T18:50:00.907Z,23.10
2019-05-31T18:52:27.967Z,23.00
2019-05-31T18:54:54.859Z,23.00
2019-05-31T18:57:21.728Z,22.90
2019-05-31T18:59:48.980Z,22.80
2019-05-31T19:02:16.834Z,22.70
2019-05-31T19:04:43.986Z,22.60
2019-05-31T19:07:11.089Z,22.50
2019-05-31T19:09:38.036Z,22.40
2019-05-31T19:12:05.012Z,22.30
2019-05-31T19:14:31.893Z,22.20
2019-05-31T19:16:59.208Z,22.10
2019-05-31T19:19:26.123Z,22.00
2019-05-31T19:21:53.103Z,21.90
2019-05-31T19:24:20.087Z,21.90
2019-05-31T19:26:46.968Z,21.80
2019-05-31T19:29:13.955Z,21.70
2019-05-31T19:31:41.136Z,21.60
2019-05-31T19:34:08.624Z,21.50
2019-05-31T19:36:35.995Z,21.50
2019-05-31T19:39:07.403Z,21.40
2019-05-31T19:41:34.677Z,21.30
2019-05-31T19:44:01.741Z,21.20
2019-05-31T19:46:28.720Z,21.20
2019-05-31T19:48:55.604Z,21.10
2019-05-31T19:51:23.693Z,21.00
2019-05-31T19:53:50.729Z,21.00
2019-05-31T19:56:19.467Z,20.90
2019-05-31T19:58:47.058Z,20.90
2019-05-31T20:01:15.452Z,20.80
2019-05-31T20:03:42.630Z,20.80
2019-05-31T20:06:09.515Z,20.70
2019-05-31T20:08:36.396Z,20.60
2019-05-31T20:11:03.489Z,20.50
2019-05-31T20:13:30.369Z,20.50
2019-05-31T20:15:57.620Z,20.40
2019-05-31T20:18:26.591Z,20.30
2019-05-31T20:20:53.292Z,20.30
2019-05-31T20:23:21.116Z,20.20
2019-05-31T20:25:48.972Z,20.10
2019-05-31T20:28:20.794Z,20.00
2019-05-31T20:30:44.724Z,20.00
2019-05-31T20:33:12.296Z,19.90
2019-05-31T20:35:43.479Z,19.80
2019-05-31T20:38:08.182Z,19.70
2019-05-31T20:40:35.161Z,19.70
2019-05-31T20:45:29.629Z,19.50
2019-05-31T20:47:56.636Z,19.50
2019-05-31T20:50:23.607Z,19.40
2019-05-31T20:52:50.489Z,19.40
2019-05-31T20:55:17.810Z,19.30
2019-05-31T20:57:44.854Z,19.30
2019-05-31T21:00:13.013Z,19.20
2019-05-31T21:02:40.002Z,19.20
2019-05-31T21:05:07.884Z,19.10
2019-05-31T21:07:35.205Z,19.10
2019-05-31T21:10:02.669Z,19.00
2019-05-31T21:12:29.651Z,19.00
2019-05-31T21:14:56.556Z,18.90
2019-05-31T21:17:24.128Z,18.90
2019-05-31T21:19:51.348Z,18.90
2019-05-31T21:22:18.256Z,18.80
2019-05-31T21:24:45.213Z,18.80
2019-05-31T21:27:12.105Z,18.70
2019-05-31T21:29:38.983Z,18.70
2019-05-31T21:32:06.236Z,18.70
2019-05-31T21:34:33.936Z,18.60
2019-05-31T21:37:01.401Z,18.60
2019-05-31T21:39:28.857Z,18.60
2019-05-31T21:41:56.141Z,18.60
2019-05-31T21:44:24.138Z,18.50
2019-05-31T21:46:51.296Z,18.50
2019-05-31T21:49:21.712Z,18.40
2019-05-31T21:51:49.242Z,18.40
2019-05-31T21:54:17.171Z,18.40
2019-05-31T21:56:44.499Z,18.30
2019-05-31T21:59:12.439Z,18.30
2019-05-31T22:01:39.892Z,18.20
2019-05-31T22:04:07.739Z,18.20
2019-05-31T22:06:35.172Z,18.10
2019-05-31T22:09:04.623Z,18.10
2019-05-31T22:11:31.616Z,18.10
2019-05-31T22:13:58.901Z,18.00
2019-05-31T22:16:27.746Z,17.90
2019-05-31T22:18:55.224Z,17.80
2019-05-31T22:21:22.387Z,17.80
2019-05-31T22:23:49.811Z,17.70
2019-05-31T22:26:17.049Z,17.70
2019-05-31T22:28:44.304Z,17.70
2019-05-31T22:31:26.011Z,17.60
2019-05-31T22:33:53.591Z,17.60
2019-05-31T22:36:20.752Z,17.50
2019-05-31T22:38:47.615Z,17.40
2019-05-31T22:41:14.493Z,17.40
2019-05-31T22:43:41.345Z,17.30
2019-05-31T22:46:08.655Z,17.30
2019-05-31T22:48:35.524Z,17.20
2019-05-31T22:51:02.941Z,17.10
2019-05-31T22:53:29.813Z,17.00
2019-05-31T22:55:56.790Z,17.00
2019-05-31T22:58:23.644Z,16.90
2019-05-31T23:00:50.574Z,16.90
2019-05-31T23:03:17.868Z,16.80
2019-05-31T23:05:44.734Z,16.80
2019-05-31T23:08:12.032Z,16.80
2019-05-31T23:10:40.163Z,16.70
2019-05-31T23:13:07.388Z,16.70
2019-05-31T23:15:34.484Z,16.60
2019-05-31T23:18:01.320Z,16.50
2019-05-31T23:20:28.388Z,16.40
2019-05-31T23:22:55.264Z,16.40
2019-05-31T23:25:22.151Z,16.30
2019-05-31T23:27:49.022Z,16.30
2019-05-31T23:30:16.543Z,16.30
2019-05-31T23:32:44.281Z,16.30
2019-05-31T23:35:11.412Z,16.30
2019-05-31T23:37:38.300Z,16.30
2019-05-31T23:40:05.564Z,16.30
2019-05-31T23:42:32.428Z,16.30
2019-05-31T23:44:59.308Z,16.30
2019-05-31T23:47:26.169Z,16.30
2019-05-31T23:49:53.255Z,16.30
2019-05-31T23:52:20.116Z,16.20
2019-05-31T23:54:47.869Z,16.20
2019-05-31T23:57:14.966Z,16.20
2019-05-31T23:59:42.019Z,16.20
